sensor_id;sensor_type;location;lat;lon;timestamp;P1;durP1;ratioP1;P2;durP2;ratioP2
47758;SDS011;33520;55.122;35.582;2022-12-18T00:00:59;11.95;;;6.13;;
47758;SDS011;33520;55.122;35.582;2022-12-18T00:03:35;10.98;;;5.57;;
47758;SDS011;33520;55.122;35.582;2022-12-18T00:06:01;12.82;;;6.25;;
47758;SDS011;33520;55.122;35.582;2022-12-18T00:08:28;8.88;;;4.90;;
47758;SDS011;33520;55.122;35.582;2022-12-18T00:10:54;9.40;;;4.95;;
47758;SDS011;33520;55.122;35.582;2022-12-18T00:13:20;11.65;;;5.95;;
47758;SDS011;33520;55.122;35.582;2022-12-18T00:15:46;10.80;;;6.22;;
47758;SDS011;33520;55.122;35.582;2022-12-18T00:18:13;12.40;;;5.18;;
47758;SDS011;33520;55.122;35.582;2022-12-18T00:20:39;10.80;;;5.95;;
47758;SDS011;33520;55.122;35.582;2022-12-18T00:23:06;12.35;;;5.80;;
47758;SDS011;33520;55.122;35.582;2022-12-18T00:25:33;12.65;;;5.50;;
47758;SDS011;33520;55.122;35.582;2022-12-18T00:28:00;12.57;;;5.97;;
47758;SDS011;33520;55.122;35.582;2022-12-18T00:30:28;11.15;;;6.15;;
47758;SDS011;33520;55.122;35.582;2022-12-18T00:32:54;13.57;;;5.78;;
47758;SDS011;33520;55.122;35.582;2022-12-18T00:35:24;8.85;;;4.78;;
47758;SDS011;33520;55.122;35.582;2022-12-18T00:37:51;10.80;;;5.18;;
47758;SDS011;33520;55.122;35.582;2022-12-18T00:40:18;10.90;;;6.65;;
47758;SDS011;33520;55.122;35.582;2022-12-18T00:42:44;10.68;;;5.10;;
47758;SDS011;33520;55.122;35.582;2022-12-18T00:45:27;9.05;;;4.78;;
47758;SDS011;33520;55.122;35.582;2022-12-18T00:47:55;11.70;;;6.32;;
47758;SDS011;33520;55.122;35.582;2022-12-18T00:50:22;10.65;;;5.80;;
47758;SDS011;33520;55.122;35.582;2022-12-18T00:52:49;12.68;;;6.00;;
47758;SDS011;33520;55.122;35.582;2022-12-18T00:55:16;7.30;;;3.33;;
47758;SDS011;33520;55.122;35.582;2022-12-18T00:57:43;10.50;;;5.53;;
47758;SDS011;33520;55.122;35.582;2022-12-18T01:00:11;10.98;;;5.25;;
47758;SDS011;33520;55.122;35.582;2022-12-18T01:02:39;11.32;;;4.93;;
47758;SDS011;33520;55.122;35.582;2022-12-18T01:05:07;10.60;;;5.38;;
47758;SDS011;33520;55.122;35.582;2022-12-18T01:07:34;9.60;;;4.55;;
47758;SDS011;33520;55.122;35.582;2022-12-18T01:10:02;8.45;;;4.68;;
47758;SDS011;33520;55.122;35.582;2022-12-18T01:12:29;9.20;;;4.25;;
47758;SDS011;33520;55.122;35.582;2022-12-18T01:14:55;7.90;;;4.63;;
47758;SDS011;33520;55.122;35.582;2022-12-18T01:17:21;8.40;;;5.05;;
47758;SDS011;33520;55.122;35.582;2022-12-18T01:19:48;9.27;;;5.05;;
47758;SDS011;33520;55.122;35.582;2022-12-18T01:22:14;8.88;;;4.80;;
47758;SDS011;33520;55.122;35.582;2022-12-18T01:24:40;9.63;;;4.80;;
47758;SDS011;33520;55.122;35.582;2022-12-18T01:27:07;8.60;;;4.80;;
47758;SDS011;33520;55.122;35.582;2022-12-18T01:29:33;8.93;;;4.07;;
47758;SDS011;33520;55.122;35.582;2022-12-18T01:31:59;9.00;;;4.53;;
47758;SDS011;33520;55.122;35.582;2022-12-18T01:34:29;10.65;;;4.88;;
47758;SDS011;33520;55.122;35.582;2022-12-18T01:36:55;9.38;;;4.70;;
47758;SDS011;33520;55.122;35.582;2022-12-18T01:39:21;8.38;;;4.30;;
47758;SDS011;33520;55.122;35.582;2022-12-18T01:41:47;8.73;;;4.82;;
47758;SDS011;33520;55.122;35.582;2022-12-18T01:52:56;9.40;;;4.63;;
47758;SDS011;33520;55.122;35.582;2022-12-18T01:55:26;9.07;;;4.07;;
47758;SDS011;33520;55.122;35.582;2022-12-18T01:57:55;8.45;;;3.88;;
47758;SDS011;33520;55.122;35.582;2022-12-18T02:00:24;7.60;;;4.30;;
47758;SDS011;33520;55.122;35.582;2022-12-18T02:02:52;7.03;;;4.13;;
47758;SDS011;33520;55.122;35.582;2022-12-18T02:05:21;7.78;;;4.28;;
47758;SDS011;33520;55.122;35.582;2022-12-18T02:17:04;7.75;;;3.63;;
47758;SDS011;33520;55.122;35.582;2022-12-18T02:24:49;6.38;;;3.50;;
47758;SDS011;33520;55.122;35.582;2022-12-18T02:27:37;6.95;;;3.55;;
47758;SDS011;33520;55.122;35.582;2022-12-18T02:30:06;8.43;;;4.05;;
47758;SDS011;33520;55.122;35.582;2022-12-18T02:32:34;4.85;;;2.90;;
47758;SDS011;33520;55.122;35.582;2022-12-18T02:35:06;6.78;;;3.60;;
47758;SDS011;33520;55.122;35.582;2022-12-18T02:37:36;5.93;;;3.15;;
47758;SDS011;33520;55.122;35.582;2022-12-18T02:40:06;8.02;;;3.95;;
47758;SDS011;33520;55.122;35.582;2022-12-18T02:42:34;6.53;;;3.47;;
47758;SDS011;33520;55.122;35.582;2022-12-18T02:45:03;6.47;;;3.00;;
47758;SDS011;33520;55.122;35.582;2022-12-18T02:47:32;6.50;;;3.85;;
47758;SDS011;33520;55.122;35.582;2022-12-18T02:50:10;6.00;;;3.40;;
47758;SDS011;33520;55.122;35.582;2022-12-18T02:52:45;7.55;;;3.60;;
47758;SDS011;33520;55.122;35.582;2022-12-18T03:01:38;4.75;;;2.95;;
47758;SDS011;33520;55.122;35.582;2022-12-18T03:05:35;4.85;;;2.88;;
47758;SDS011;33520;55.122;35.582;2022-12-18T03:07:58;6.80;;;3.85;;
47758;SDS011;33520;55.122;35.582;2022-12-18T03:10:41;6.03;;;3.35;;
47758;SDS011;33520;55.122;35.582;2022-12-18T03:13:12;7.03;;;3.20;;
47758;SDS011;33520;55.122;35.582;2022-12-18T03:15:48;6.25;;;3.28;;
47758;SDS011;33520;55.122;35.582;2022-12-18T03:18:18;5.55;;;2.92;;
47758;SDS011;33520;55.122;35.582;2022-12-18T03:20:47;5.05;;;2.90;;
47758;SDS011;33520;55.122;35.582;2022-12-18T03:23:20;6.32;;;3.92;;
47758;SDS011;33520;55.122;35.582;2022-12-18T03:25:49;5.13;;;2.83;;
47758;SDS011;33520;55.122;35.582;2022-12-18T03:28:21;4.72;;;2.45;;
47758;SDS011;33520;55.122;35.582;2022-12-18T03:30:55;7.43;;;3.22;;
47758;SDS011;33520;55.122;35.582;2022-12-18T03:33:34;5.93;;;3.30;;
47758;SDS011;33520;55.122;35.582;2022-12-18T03:36:02;5.03;;;3.00;;
47758;SDS011;33520;55.122;35.582;2022-12-18T03:46:11;3.47;;;2.55;;
47758;SDS011;33520;55.122;35.582;2022-12-18T03:49:01;6.22;;;3.38;;
47758;SDS011;33520;55.122;35.582;2022-12-18T03:51:37;6.30;;;3.28;;
47758;SDS011;33520;55.122;35.582;2022-12-18T03:54:10;6.38;;;3.38;;
47758;SDS011;33520;55.122;35.582;2022-12-18T03:56:44;4.93;;;3.33;;
47758;SDS011;33520;55.122;35.582;2022-12-18T03:59:15;6.43;;;3.75;;
47758;SDS011;33520;55.122;35.582;2022-12-18T04:01:45;5.05;;;3.08;;
47758;SDS011;33520;55.122;35.582;2022-12-18T04:04:14;6.30;;;3.53;;
47758;SDS011;33520;55.122;35.582;2022-12-18T04:06:42;4.72;;;2.85;;
47758;SDS011;33520;55.122;35.582;2022-12-18T04:09:11;6.43;;;3.67;;
47758;SDS011;33520;55.122;35.582;2022-12-18T04:11:42;6.00;;;3.25;;
47758;SDS011;33520;55.122;35.582;2022-12-18T04:14:11;4.88;;;2.92;;
47758;SDS011;33520;55.122;35.582;2022-12-18T04:16:38;7.40;;;3.97;;
47758;SDS011;33520;55.122;35.582;2022-12-18T04:19:08;6.90;;;3.17;;
47758;SDS011;33520;55.122;35.582;2022-12-18T04:21:39;9.52;;;4.25;;
47758;SDS011;33520;55.122;35.582;2022-12-18T04:24:06;6.07;;;3.20;;
47758;SDS011;33520;55.122;35.582;2022-12-18T04:26:35;7.93;;;3.70;;
47758;SDS011;33520;55.122;35.582;2022-12-18T04:29:12;6.70;;;3.50;;
47758;SDS011;33520;55.122;35.582;2022-12-18T04:34:06;6.97;;;3.00;;
47758;SDS011;33520;55.122;35.582;2022-12-18T04:36:38;6.43;;;4.05;;
47758;SDS011;33520;55.122;35.582;2022-12-18T04:39:06;11.38;;;4.53;;
47758;SDS011;33520;55.122;35.582;2022-12-18T04:41:33;7.55;;;4.35;;
47758;SDS011;33520;55.122;35.582;2022-12-18T04:43:59;8.00;;;3.97;;
47758;SDS011;33520;55.122;35.582;2022-12-18T04:46:27;6.72;;;3.53;;
47758;SDS011;33520;55.122;35.582;2022-12-18T04:48:54;8.90;;;3.75;;
47758;SDS011;33520;55.122;35.582;2022-12-18T04:51:20;9.98;;;4.20;;
47758;SDS011;33520;55.122;35.582;2022-12-18T04:53:47;6.30;;;3.20;;
47758;SDS011;33520;55.122;35.582;2022-12-18T04:56:13;7.60;;;3.80;;
47758;SDS011;33520;55.122;35.582;2022-12-18T04:58:42;6.38;;;4.10;;
47758;SDS011;33520;55.122;35.582;2022-12-18T05:01:09;7.88;;;4.50;;
47758;SDS011;33520;55.122;35.582;2022-12-18T05:03:37;7.25;;;4.85;;
47758;SDS011;33520;55.122;35.582;2022-12-18T05:06:04;7.32;;;4.38;;
47758;SDS011;33520;55.122;35.582;2022-12-18T05:08:32;6.90;;;3.72;;
47758;SDS011;33520;55.122;35.582;2022-12-18T05:13:29;10.65;;;5.32;;
47758;SDS011;33520;55.122;35.582;2022-12-18T05:15:56;10.77;;;6.22;;
47758;SDS011;33520;55.122;35.582;2022-12-18T05:18:22;8.80;;;4.03;;
47758;SDS011;33520;55.122;35.582;2022-12-18T05:20:50;6.18;;;3.80;;
47758;SDS011;33520;55.122;35.582;2022-12-18T05:23:16;5.82;;;3.47;;
47758;SDS011;33520;55.122;35.582;2022-12-18T05:28:15;8.75;;;4.00;;
47758;SDS011;33520;55.122;35.582;2022-12-18T05:30:41;9.02;;;3.83;;
47758;SDS011;33520;55.122;35.582;2022-12-18T05:33:08;8.13;;;4.20;;
47758;SDS011;33520;55.122;35.582;2022-12-18T05:35:34;9.50;;;4.10;;
47758;SDS011;33520;55.122;35.582;2022-12-18T05:38:00;11.55;;;5.00;;
47758;SDS011;33520;55.122;35.582;2022-12-18T05:40:27;9.98;;;4.47;;
47758;SDS011;33520;55.122;35.582;2022-12-18T05:42:53;9.82;;;5.25;;
47758;SDS011;33520;55.122;35.582;2022-12-18T05:45:19;8.43;;;4.13;;
47758;SDS011;33520;55.122;35.582;2022-12-18T05:47:45;8.60;;;3.72;;
47758;SDS011;33520;55.122;35.582;2022-12-18T05:50:12;15.25;;;6.80;;
47758;SDS011;33520;55.122;35.582;2022-12-18T05:52:38;9.90;;;4.93;;
47758;SDS011;33520;55.122;35.582;2022-12-18T05:55:04;8.05;;;4.30;;
47758;SDS011;33520;55.122;35.582;2022-12-18T05:57:31;7.70;;;4.25;;
47758;SDS011;33520;55.122;35.582;2022-12-18T05:59:57;10.27;;;5.13;;
47758;SDS011;33520;55.122;35.582;2022-12-18T06:02:23;7.22;;;4.30;;
47758;SDS011;33520;55.122;35.582;2022-12-18T06:04:50;7.88;;;4.22;;
47758;SDS011;33520;55.122;35.582;2022-12-18T06:07:16;7.72;;;4.50;;
47758;SDS011;33520;55.122;35.582;2022-12-18T06:09:43;7.97;;;4.68;;
